Ana Sayfa
METAR-TAF:

METAR-TAF

Havaalanları :

Westfield / Springfield, Massachusetts, Amerika Birleşik Devletleri

Enlem: 42-09-35N, Boylam: 072-42-46W, yükseklik: 82 m

Güncel hava durumu gözlemi

Rapor saat 20:53 UTC de 47 dakika önce yapıldı.
Rüzgar kuzeydan 8 kt
Sıcaklık 1°C
Nem 19%
Basınç 1031 hPa
Görüş mesafesi: 16.1 km
Açık gökyüzü

METAR: KBAF 162053Z 01008KT 10SM CLR 01/M20 A3046 RMK AO2 SLP322 T00061200 55003

Saat: 16:40 (21:40 UTC)

Tahmin

Rapor saat 17:39 UTC de 4 saat ve 1 dakika önce yapıldı.
Ayın 16'si saat 18 UTC'den ayın 17'si saat 18 UTC'ye kadar geçerli Tahmin
Rüzgar kuzey/kuzeydoğudan 10 kt
Görüş mesafesi: 10 km
Açık gökyüzü
Ayın 16'si saat 2300 UTC'den
Rüzgar kuzeydan 6 kt
Görüş mesafesi: 10 km
Açık gökyüzü
Ayın 17'si saat 1700 UTC'den
Rüzgar kuzeydoğudan 7 kt
Görüş mesafesi: 10 km
15000 ft yükseklikte parçalı bulutlu

TAF: KBAF 161739Z 1618/1718 03010KT P6SM SKC FM162300 01006KT P6SM SKC FM171700 04007KT P6SM SCT150

4.000'den fazla havaalanı için hava durumu gözlemleri ve tahminleri (METAR ve TAF raporları).

Kullanılabilir istasyonlar harita üzerinde sarı ve kırmızı noktalarla gösterilir.

İstasyonun adını görmek için fareyi noktanın üzerinde gezdirin.

Sonrasında hava gözlem ve tahminlerini görmek için tıklayın.

Haritayı değiştirmek için: yaklaştırmak için siyah artı işaretli yeşil düğmeye ve uzaklaştırmak için de eksi işaretli düğmeye hızla tıklayın; bitişik haritalar için yeşil okları kullanın.


METAR-TAF: